sensor_id;sensor_type;location;lat;lon;timestamp;P1;durP1;ratioP1;P2;durP2;ratioP2
69931;SDS011;57243;52.064;5.116;2022-10-18T00:02:14;5.63;;;2.80;;
69931;SDS011;57243;52.064;5.116;2022-10-18T00:04:40;5.50;;;2.70;;
69931;SDS011;57243;52.064;5.116;2022-10-18T00:07:05;4.88;;;2.28;;
69931;SDS011;57243;52.064;5.116;2022-10-18T00:09:31;6.93;;;3.00;;
69931;SDS011;57243;52.064;5.116;2022-10-18T00:11:57;4.38;;;2.90;;
69931;SDS011;57243;52.064;5.116;2022-10-18T00:14:23;6.13;;;3.00;;
69931;SDS011;57243;52.064;5.116;2022-10-18T00:16:48;4.72;;;2.90;;
69931;SDS011;57243;52.064;5.116;2022-10-18T00:19:14;5.67;;;2.83;;
69931;SDS011;57243;52.064;5.116;2022-10-18T00:21:40;5.80;;;2.75;;
69931;SDS011;57243;52.064;5.116;2022-10-18T00:24:05;5.77;;;2.90;;
69931;SDS011;57243;52.064;5.116;2022-10-18T00:26:31;6.90;;;2.80;;
69931;SDS011;57243;52.064;5.116;2022-10-18T00:29:01;6.63;;;2.80;;
69931;SDS011;57243;52.064;5.116;2022-10-18T00:31:29;5.15;;;2.80;;
69931;SDS011;57243;52.064;5.116;2022-10-18T00:33:58;4.15;;;2.67;;
69931;SDS011;57243;52.064;5.116;2022-10-18T00:36:26;5.32;;;2.58;;
69931;SDS011;57243;52.064;5.116;2022-10-18T00:38:53;5.35;;;2.85;;
69931;SDS011;57243;52.064;5.116;2022-10-18T00:41:20;6.32;;;2.90;;
69931;SDS011;57243;52.064;5.116;2022-10-18T00:46:32;7.50;;;2.90;;
69931;SDS011;57243;52.064;5.116;2022-10-18T00:49:00;3.85;;;2.60;;
69931;SDS011;57243;52.064;5.116;2022-10-18T00:51:31;5.15;;;3.00;;
69931;SDS011;57243;52.064;5.116;2022-10-18T00:54:15;4.90;;;2.60;;
69931;SDS011;57243;52.064;5.116;2022-10-18T00:56:43;6.83;;;3.00;;
69931;SDS011;57243;52.064;5.116;2022-10-18T00:59:09;4.35;;;2.70;;
69931;SDS011;57243;52.064;5.116;2022-10-18T01:01:37;4.75;;;2.60;;
69931;SDS011;57243;52.064;5.116;2022-10-18T01:04:03;4.00;;;2.60;;
69931;SDS011;57243;52.064;5.116;2022-10-18T01:06:28;4.50;;;2.65;;
69931;SDS011;57243;52.064;5.116;2022-10-18T01:22:44;4.38;;;2.53;;
69931;SDS011;57243;52.064;5.116;2022-10-18T01:33:09;5.70;;;2.70;;
69931;SDS011;57243;52.064;5.116;2022-10-18T01:35:43;7.35;;;2.78;;
69931;SDS011;57243;52.064;5.116;2022-10-18T01:38:14;4.47;;;2.60;;
69931;SDS011;57243;52.064;5.116;2022-10-18T01:40:44;5.80;;;2.58;;
69931;SDS011;57243;52.064;5.116;2022-10-18T01:43:12;4.50;;;2.45;;
69931;SDS011;57243;52.064;5.116;2022-10-18T01:45:39;3.95;;;2.25;;
69931;SDS011;57243;52.064;5.116;2022-10-18T01:48:06;5.13;;;3.00;;
69931;SDS011;57243;52.064;5.116;2022-10-18T01:50:33;4.72;;;2.40;;
69931;SDS011;57243;52.064;5.116;2022-10-18T01:52:59;4.32;;;2.50;;
69931;SDS011;57243;52.064;5.116;2022-10-18T01:55:44;7.30;;;3.00;;
69931;SDS011;57243;52.064;5.116;2022-10-18T02:01:32;4.80;;;2.40;;
69931;SDS011;57243;52.064;5.116;2022-10-18T02:06:48;4.47;;;2.17;;
69931;SDS011;57243;52.064;5.116;2022-10-18T02:09:20;3.65;;;2.42;;
69931;SDS011;57243;52.064;5.116;2022-10-18T02:11:53;3.88;;;2.30;;
69931;SDS011;57243;52.064;5.116;2022-10-18T02:14:21;5.97;;;2.38;;
69931;SDS011;57243;52.064;5.116;2022-10-18T02:16:49;4.63;;;2.50;;
69931;SDS011;57243;52.064;5.116;2022-10-18T02:19:26;4.05;;;2.30;;
69931;SDS011;57243;52.064;5.116;2022-10-18T02:21:59;3.92;;;2.40;;
69931;SDS011;57243;52.064;5.116;2022-10-18T02:24:32;5.68;;;2.67;;
69931;SDS011;57243;52.064;5.116;2022-10-18T02:27:02;4.07;;;2.28;;
69931;SDS011;57243;52.064;5.116;2022-10-18T02:29:28;3.20;;;2.10;;
69931;SDS011;57243;52.064;5.116;2022-10-18T02:31:57;4.57;;;2.30;;
69931;SDS011;57243;52.064;5.116;2022-10-18T02:34:41;4.20;;;2.30;;
69931;SDS011;57243;52.064;5.116;2022-10-18T02:37:10;5.95;;;2.90;;
69931;SDS011;57243;52.064;5.116;2022-10-18T02:39:39;4.72;;;2.28;;
69931;SDS011;57243;52.064;5.116;2022-10-18T02:42:09;3.97;;;2.17;;
69931;SDS011;57243;52.064;5.116;2022-10-18T02:44:37;5.30;;;2.55;;
69931;SDS011;57243;52.064;5.116;2022-10-18T02:47:04;3.67;;;2.20;;
69931;SDS011;57243;52.064;5.116;2022-10-18T02:49:30;3.35;;;2.10;;
69931;SDS011;57243;52.064;5.116;2022-10-18T02:51:56;3.72;;;2.38;;
69931;SDS011;57243;52.064;5.116;2022-10-18T02:54:22;4.93;;;2.10;;
69931;SDS011;57243;52.064;5.116;2022-10-18T02:56:48;4.40;;;2.10;;
69931;SDS011;57243;52.064;5.116;2022-10-18T02:59:14;4.20;;;2.30;;
69931;SDS011;57243;52.064;5.116;2022-10-18T03:01:40;2.83;;;2.08;;
69931;SDS011;57243;52.064;5.116;2022-10-18T03:04:05;4.03;;;2.40;;
69931;SDS011;57243;52.064;5.116;2022-10-18T03:06:31;5.70;;;1.98;;
69931;SDS011;57243;52.064;5.116;2022-10-18T03:08:57;3.65;;;2.03;;
69931;SDS011;57243;52.064;5.116;2022-10-18T03:11:23;3.93;;;2.20;;
69931;SDS011;57243;52.064;5.116;2022-10-18T03:13:49;2.72;;;1.80;;
69931;SDS011;57243;52.064;5.116;2022-10-18T03:16:15;4.28;;;2.50;;
69931;SDS011;57243;52.064;5.116;2022-10-18T03:18:41;2.70;;;2.08;;
69931;SDS011;57243;52.064;5.116;2022-10-18T03:21:07;4.70;;;2.53;;
69931;SDS011;57243;52.064;5.116;2022-10-18T03:23:33;2.80;;;2.00;;
69931;SDS011;57243;52.064;5.116;2022-10-18T03:25:58;2.95;;;2.15;;
69931;SDS011;57243;52.064;5.116;2022-10-18T03:28:24;2.90;;;2.10;;
69931;SDS011;57243;52.064;5.116;2022-10-18T03:30:50;3.50;;;2.00;;
69931;SDS011;57243;52.064;5.116;2022-10-18T03:33:15;3.37;;;2.10;;
69931;SDS011;57243;52.064;5.116;2022-10-18T03:35:41;2.95;;;1.98;;
69931;SDS011;57243;52.064;5.116;2022-10-18T03:38:06;3.80;;;2.23;;
69931;SDS011;57243;52.064;5.116;2022-10-18T03:40:32;2.55;;;1.80;;
69931;SDS011;57243;52.064;5.116;2022-10-18T03:42:58;3.50;;;2.13;;
69931;SDS011;57243;52.064;5.116;2022-10-18T03:45:24;4.60;;;2.33;;
69931;SDS011;57243;52.064;5.116;2022-10-18T03:47:49;2.37;;;1.70;;
69931;SDS011;57243;52.064;5.116;2022-10-18T03:50:15;2.97;;;1.90;;
69931;SDS011;57243;52.064;5.116;2022-10-18T03:52:41;3.50;;;2.13;;
69931;SDS011;57243;52.064;5.116;2022-10-18T03:55:07;2.90;;;1.90;;
69931;SDS011;57243;52.064;5.116;2022-10-18T03:57:33;2.53;;;1.80;;
69931;SDS011;57243;52.064;5.116;2022-10-18T03:59:58;2.97;;;1.90;;
69931;SDS011;57243;52.064;5.116;2022-10-18T04:02:24;4.57;;;2.23;;
69931;SDS011;57243;52.064;5.116;2022-10-18T04:04:49;3.05;;;1.92;;
69931;SDS011;57243;52.064;5.116;2022-10-18T04:07:16;3.10;;;2.00;;
69931;SDS011;57243;52.064;5.116;2022-10-18T04:09:42;3.38;;;1.90;;
69931;SDS011;57243;52.064;5.116;2022-10-18T04:12:07;3.23;;;2.10;;
69931;SDS011;57243;52.064;5.116;2022-10-18T04:14:33;3.08;;;2.00;;
69931;SDS011;57243;52.064;5.116;2022-10-18T04:16:58;3.17;;;2.00;;
69931;SDS011;57243;52.064;5.116;2022-10-18T04:19:24;3.23;;;1.93;;
69931;SDS011;57243;52.064;5.116;2022-10-18T04:21:49;2.63;;;1.80;;
69931;SDS011;57243;52.064;5.116;2022-10-18T04:24:16;2.80;;;1.93;;
69931;SDS011;57243;52.064;5.116;2022-10-18T04:26:42;3.80;;;1.88;;
69931;SDS011;57243;52.064;5.116;2022-10-18T04:29:07;3.30;;;2.00;;
69931;SDS011;57243;52.064;5.116;2022-10-18T04:31:33;3.25;;;2.15;;
69931;SDS011;57243;52.064;5.116;2022-10-18T04:33:58;4.27;;;2.00;;
69931;SDS011;57243;52.064;5.116;2022-10-18T04:36:24;2.70;;;1.88;;
69931;SDS011;57243;52.064;5.116;2022-10-18T04:38:50;3.23;;;2.03;;
69931;SDS011;57243;52.064;5.116;2022-10-18T04:41:15;3.50;;;1.97;;
69931;SDS011;57243;52.064;5.116;2022-10-18T04:43:41;3.70;;;1.88;;
69931;SDS011;57243;52.064;5.116;2022-10-18T04:46:06;3.83;;;2.10;;
69931;SDS011;57243;52.064;5.116;2022-10-18T04:48:32;4.90;;;2.00;;
69931;SDS011;57243;52.064;5.116;2022-10-18T04:50:58;3.50;;;2.08;;
69931;SDS011;57243;52.064;5.116;2022-10-18T04:53:23;2.83;;;1.80;;
69931;SDS011;57243;52.064;5.116;2022-10-18T04:55:49;3.40;;;2.10;;
69931;SDS011;57243;52.064;5.116;2022-10-18T04:58:15;3.23;;;2.20;;
69931;SDS011;57243;52.064;5.116;2022-10-18T05:00:42;3.03;;;1.70;;
69931;SDS011;57243;52.064;5.116;2022-10-18T05:03:08;2.80;;;1.80;;
69931;SDS011;57243;52.064;5.116;2022-10-18T05:05:36;3.30;;;2.08;;
69931;SDS011;57243;52.064;5.116;2022-10-18T05:08:02;2.90;;;1.77;;
69931;SDS011;57243;52.064;5.116;2022-10-18T05:10:28;3.45;;;2.35;;
69931;SDS011;57243;52.064;5.116;2022-10-18T05:12:54;3.03;;;1.83;;
69931;SDS011;57243;52.064;5.116;2022-10-18T05:15:19;3.50;;;2.13;;
69931;SDS011;57243;52.064;5.116;2022-10-18T05:17:45;2.30;;;1.70;;
69931;SDS011;57243;52.064;5.116;2022-10-18T05:20:10;3.27;;;2.10;;
69931;SDS011;57243;52.064;5.116;2022-10-18T05:22:36;2.58;;;1.70;;
69931;SDS011;57243;52.064;5.116;2022-10-18T05:25:02;2.60;;;1.92;;
69931;SDS011;57243;52.064;5.116;2022-10-18T05:27:28;4.93;;;1.60;;
69931;SDS011;57243;52.064;5.116;2022-10-18T05:29:54;6.32;;;2.03;;
69931;SDS011;57243;52.064;5.116;2022-10-18T05:32:20;3.88;;;1.60;;
69931;SDS011;57243;52.064;5.116;2022-10-18T05:34:45;4.43;;;1.97;;
69931;SDS011;57243;52.064;5.116;2022-10-18T05:37:11;5.03;;;2.10;;
69931;SDS011;57243;52.064;5.116;2022-10-18T05:39:37;3.33;;;1.70;;
69931;SDS011;57243;52.064;5.116;2022-10-18T05:42:02;4.93;;;1.87;;
69931;SDS011;57243;52.064;5.116;2022-10-18T05:44:29;3.38;;;1.60;;
69931;SDS011;57243;52.064;5.116;2022-10-18T05:46:54;6.45;;;1.90;;
69931;SDS011;57243;52.064;5.116;2022-10-18T05:49:20;4.73;;;1.80;;
69931;SDS011;57243;52.064;5.116;2022-10-18T05:51:45;3.87;;;2.07;;
69931;SDS011;57243;52.064;5.116;2022-10-18T05:54:11;4.50;;;2.05;;
69931;SDS011;57243;52.064;5.116;2022-10-18T05:56:37;4.13;;;2.17;;
69931;SDS011;57243;52.064;5.116;2022-10-18T05:59:03;4.78;;;2.00;;
69931;SDS011;57243;52.064;5.116;2022-10-18T06:01:34;7.75;;;1.98;;
69931;SDS011;57243;52.064;5.116;2022-10-18T06:04:00;2.95;;;1.70;;
69931;SDS011;57243;52.064;5.116;2022-10-18T06:06:26;2.92;;;1.55;;
69931;SDS011;57243;52.064;5.116;2022-10-18T06:08:51;4.77;;;2.00;;
69931;SDS011;57243;52.064;5.116;2022-10-18T06:11:18;4.43;;;1.98;;
69931;SDS011;57243;52.064;5.116;2022-10-18T06:13:48;4.20;;;1.83;;
69931;SDS011;57243;52.064;5.116;2022-10-18T06:16:15;4.20;;;1.70;;
69931;SDS011;57243;52.064;5.116;2022-10-18T06:18:45;2.72;;;1.80;;
69931;SDS011;57243;52.064;5.116;2022-10-18T06:21:12;3.78;;;1.90;;
69931;SDS011;57243;52.064;5.116;2022-10-18T06:23:38;3.13;;;1.60;;
69931;SDS011;57243;52.064;5.116;2022-10-18T06:26:05;6.30;;;1.67;;
69931;SDS011;57243;52.064;5.116;2022-10-18T06:28:35;3.30;;;1.80;;
69931;SDS011;57243;52.064;5.116;2022-10-18T06:31:02;3.13;;;1.58;;
69931;SDS011;57243;52.064;5.116;2022-10-18T06:33:29;2.75;;;1.63;;
69931;SDS011;57243;52.064;5.116;2022-10-18T06:35:57;4.13;;;1.50;;
69931;SDS011;57243;52.064;5.116;2022-10-18T06:38:26;2.60;;;1.40;;
69931;SDS011;57243;52.064;5.116;2022-10-18T06:40:53;3.00;;;1.70;;
69931;SDS011;57243;52.064;5.116;2022-10-18T06:43:21;4.47;;;1.50;;
69931;SDS011;57243;52.064;5.116;2022-10-18T06:45:46;4.53;;;2.00;;
69931;SDS011;57243;52.064;5.116;2022-10-18T06:48:12;4.10;;;1.42;;
69931;SDS011;57243;52.064;5.116;2022-10-18T06:50:38;5.72;;;1.83;;
69931;SDS011;57243;52.064;5.116;2022-10-18T06:53:04;3.50;;;1.60;;
69931;SDS011;57243;52.064;5.116;2022-10-18T06:55:32;4.40;;;2.30;;
69931;SDS011;57243;52.064;5.116;2022-10-18T06:57:58;4.07;;;1.65;;
69931;SDS011;57243;52.064;5.116;2022-10-18T07:00:24;4.23;;;1.80;;
69931;SDS011;57243;52.064;5.116;2022-10-18T07:02:50;4.20;;;1.70;;
69931;SDS011;57243;52.064;5.116;2022-10-18T07:05:15;3.87;;;1.60;;
69931;SDS011;57243;52.064;5.116;2022-10-18T07:07:41;3.50;;;1.50;;
69931;SDS011;57243;52.064;5.116;2022-10-18T07:10:07;3.50;;;1.57;;
69931;SDS011;57243;52.064;5.116;2022-10-18T07:12:33;7.10;;;1.77;;
69931;SDS011;57243;52.064;5.116;2022-10-18T07:14:58;6.47;;;2.10;;
69931;SDS011;57243;52.064;5.116;2022-10-18T07:17:24;3.45;;;1.65;;
69931;SDS011;57243;52.064;5.116;2022-10-18T07:19:50;5.90;;;2.08;;
69931;SDS011;57243;52.064;5.116;2022-10-18T07:22:16;5.37;;;1.80;;
69931;SDS011;57243;52.064;5.116;2022-10-18T07:24:42;5.13;;;1.80;;
69931;SDS011;57243;52.064;5.116;2022-10-18T07:27:07;6.50;;;2.20;;
69931;SDS011;57243;52.064;5.116;2022-10-18T07:29:33;6.40;;;2.53;;
69931;SDS011;57243;52.064;5.116;2022-10-18T07:32:02;8.27;;;2.30;;
69931;SDS011;57243;52.064;5.116;2022-10-18T07:34:28;3.92;;;1.90;;
69931;SDS011;57243;52.064;5.116;2022-10-18T07:36:54;7.03;;;2.23;;
69931;SDS011;57243;52.064;5.116;2022-10-18T07:39:19;4.53;;;1.98;;
69931;SDS011;57243;52.064;5.116;2022-10-18T07:41:45;5.10;;;2.37;;
69931;SDS011;57243;52.064;5.116;2022-10-18T07:44:11;5.03;;;2.38;;
69931;SDS011;57243;52.064;5.116;2022-10-18T07:46:36;7.00;;;2.13;;
69931;SDS011;57243;52.064;5.116;2022-10-18T07:49:02;5.93;;;2.03;;
69931;SDS011;57243;52.064;5.116;2022-10-18T07:51:28;7.40;;;2.17;;
69931;SDS011;57243;52.064;5.116;2022-10-18T07:53:56;5.70;;;2.50;;
69931;SDS011;57243;52.064;5.116;2022-10-18T07:56:25;4.63;;;2.00;;
69931;SDS011;57243;52.064;5.116;2022-10-18T07:58:51;2.80;;;1.97;;
69931;SDS011;57243;52.064;5.116;2022-10-18T08:01:19;4.53;;;2.08;;
69931;SDS011;57243;52.064;5.116;2022-10-18T08:03:45;5.55;;;2.00;;
69931;SDS011;57243;52.064;5.116;2022-10-18T08:06:12;7.57;;;1.97;;
69931;SDS011;57243;52.064;5.116;2022-10-18T08:08:40;4.75;;;1.92;;
69931;SDS011;57243;52.064;5.116;2022-10-18T08:11:24;4.68;;;2.47;;
69931;SDS011;57243;52.064;5.116;2022-10-18T08:13:51;7.25;;;2.08;;
69931;SDS011;57243;52.064;5.116;2022-10-18T08:16:18;7.78;;;2.10;;
69931;SDS011;57243;52.064;5.116;2022-10-18T08:18:50;7.27;;;1.70;;
69931;SDS011;57243;52.064;5.116;2022-10-18T08:21:17;3.97;;;1.70;;
69931;SDS011;57243;52.064;5.116;2022-10-18T08:23:44;3.33;;;1.70;;
69931;SDS011;57243;52.064;5.116;2022-10-18T08:26:11;5.18;;;1.92;;
69931;SDS011;57243;52.064;5.116;2022-10-18T08:28:39;4.63;;;1.90;;
69931;SDS011;57243;52.064;5.116;2022-10-18T08:31:09;5.70;;;1.90;;
69931;SDS011;57243;52.064;5.116;2022-10-18T08:33:37;6.15;;;1.85;;
69931;SDS011;57243;52.064;5.116;2022-10-18T08:36:04;16.80;;;2.72;;
69931;SDS011;57243;52.064;5.116;2022-10-18T08:38:32;6.40;;;1.80;;
69931;SDS011;57243;52.064;5.116;2022-10-18T08:40:59;3.47;;;1.70;;
69931;SDS011;57243;52.064;5.116;2022-10-18T08:43:42;5.53;;;1.70;;
69931;SDS011;57243;52.064;5.116;2022-10-18T08:46:20;5.53;;;1.80;;
69931;SDS011;57243;52.064;5.116;2022-10-18T08:48:47;4.13;;;1.80;;
69931;SDS011;57243;52.064;5.116;2022-10-18T08:54:13;6.70;;;1.80;;
69931;SDS011;57243;52.064;5.116;2022-10-18T08:56:48;3.55;;;1.63;;
69931;SDS011;57243;52.064;5.116;2022-10-18T08:59:28;5.25;;;1.80;;
69931;SDS011;57243;52.064;5.116;2022-10-18T09:12:54;4.40;;;1.65;;
69931;SDS011;57243;52.064;5.116;2022-10-18T09:15:54;3.38;;;1.90;;
69931;SDS011;57243;52.064;5.116;2022-10-18T09:23:54;3.95;;;1.67;;
69931;SDS011;57243;52.064;5.116;2022-10-18T09:26:44;8.35;;;1.70;;
69931;SDS011;57243;52.064;5.116;2022-10-18T09:32:20;5.00;;;1.40;;
69931;SDS011;57243;52.064;5.116;2022-10-18T09:37:31;5.25;;;1.90;;
69931;SDS011;57243;52.064;5.116;2022-10-18T09:40:02;3.38;;;1.65;;
69931;SDS011;57243;52.064;5.116;2022-10-18T09:42:53;5.40;;;1.50;;
69931;SDS011;57243;52.064;5.116;2022-10-18T09:45:30;6.35;;;1.70;;
69931;SDS011;57243;52.064;5.116;2022-10-18T09:48:04;4.03;;;1.55;;
69931;SDS011;57243;52.064;5.116;2022-10-18T09:56:25;3.78;;;1.60;;
69931;SDS011;57243;52.064;5.116;2022-10-18T09:58:58;3.70;;;1.45;;
69931;SDS011;57243;52.064;5.116;2022-10-18T10:01:25;10.10;;;1.83;;
69931;SDS011;57243;52.064;5.116;2022-10-18T10:03:55;6.90;;;1.40;;
69931;SDS011;57243;52.064;5.116;2022-10-18T10:06:25;5.03;;;1.55;;
69931;SDS011;57243;52.064;5.116;2022-10-18T10:08:59;6.70;;;1.70;;
69931;SDS011;57243;52.064;5.116;2022-10-18T10:11:34;6.67;;;1.60;;
69931;SDS011;57243;52.064;5.116;2022-10-18T10:14:41;4.82;;;1.48;;
69931;SDS011;57243;52.064;5.116;2022-10-18T10:16:55;3.72;;;1.70;;
69931;SDS011;57243;52.064;5.116;2022-10-18T10:19:55;4.38;;;1.33;;
69931;SDS011;57243;52.064;5.116;2022-10-18T10:22:31;3.45;;;1.55;;
69931;SDS011;57243;52.064;5.116;2022-10-18T10:24:59;4.67;;;1.40;;
69931;SDS011;57243;52.064;5.116;2022-10-18T10:27:29;5.22;;;1.80;;
69931;SDS011;57243;52.064;5.116;2022-10-18T10:29:58;11.65;;;1.58;;
69931;SDS011;57243;52.064;5.116;2022-10-18T10:32:28;3.83;;;1.27;;
69931;SDS011;57243;52.064;5.116;2022-10-18T10:34:56;5.88;;;1.67;;
69931;SDS011;57243;52.064;5.116;2022-10-18T10:37:33;5.80;;;1.40;;
69931;SDS011;57243;52.064;5.116;2022-10-18T10:40:04;7.68;;;1.50;;
69931;SDS011;57243;52.064;5.116;2022-10-18T10:42:31;3.55;;;1.40;;
69931;SDS011;57243;52.064;5.116;2022-10-18T10:44:57;6.07;;;1.65;;
69931;SDS011;57243;52.064;5.116;2022-10-18T10:47:30;5.10;;;1.50;;
69931;SDS011;57243;52.064;5.116;2022-10-18T10:49:57;6.70;;;2.07;;
69931;SDS011;57243;52.064;5.116;2022-10-18T10:52:23;10.00;;;1.42;;
69931;SDS011;57243;52.064;5.116;2022-10-18T10:54:52;6.38;;;1.48;;
69931;SDS011;57243;52.064;5.116;2022-10-18T10:57:22;5.45;;;1.20;;
69931;SDS011;57243;52.064;5.116;2022-10-18T10:59:51;5.90;;;1.30;;
69931;SDS011;57243;52.064;5.116;2022-10-18T11:02:32;3.08;;;1.17;;
69931;SDS011;57243;52.064;5.116;2022-10-18T11:07:49;5.32;;;1.40;;
69931;SDS011;57243;52.064;5.116;2022-10-18T11:10:27;3.65;;;1.33;;
69931;SDS011;57243;52.064;5.116;2022-10-18T11:15:58;7.45;;;1.30;;
69931;SDS011;57243;52.064;5.116;2022-10-18T11:18:33;4.32;;;1.52;;
69931;SDS011;57243;52.064;5.116;2022-10-18T11:21:02;3.22;;;1.15;;
69931;SDS011;57243;52.064;5.116;2022-10-18T11:23:41;6.15;;;1.90;;
69931;SDS011;57243;52.064;5.116;2022-10-18T11:42:15;5.03;;;1.63;;
69931;SDS011;57243;52.064;5.116;2022-10-18T11:44:45;5.00;;;1.13;;
69931;SDS011;57243;52.064;5.116;2022-10-18T11:47:55;5.57;;;1.30;;
69931;SDS011;57243;52.064;5.116;2022-10-18T11:50:23;5.28;;;1.33;;
69931;SDS011;57243;52.064;5.116;2022-10-18T11:53:29;8.60;;;1.50;;
69931;SDS011;57243;52.064;5.116;2022-10-18T12:02:05;4.20;;;1.23;;
69931;SDS011;57243;52.064;5.116;2022-10-18T12:04:40;7.15;;;1.10;;
69931;SDS011;57243;52.064;5.116;2022-10-18T12:07:15;7.23;;;1.40;;
69931;SDS011;57243;52.064;5.116;2022-10-18T12:09:44;3.88;;;1.10;;
69931;SDS011;57243;52.064;5.116;2022-10-18T12:12:14;5.35;;;1.08;;
69931;SDS011;57243;52.064;5.116;2022-10-18T12:14:50;6.13;;;1.55;;
69931;SDS011;57243;52.064;5.116;2022-10-18T12:20:23;9.80;;;1.17;;
69931;SDS011;57243;52.064;5.116;2022-10-18T12:23:09;5.63;;;1.33;;
69931;SDS011;57243;52.064;5.116;2022-10-18T12:25:40;5.53;;;1.35;;
69931;SDS011;57243;52.064;5.116;2022-10-18T12:30:47;4.65;;;1.50;;
69931;SDS011;57243;52.064;5.116;2022-10-18T12:33:20;3.40;;;1.13;;
69931;SDS011;57243;52.064;5.116;2022-10-18T12:35:59;5.22;;;1.10;;
69931;SDS011;57243;52.064;5.116;2022-10-18T12:38:36;5.15;;;0.93;;
69931;SDS011;57243;52.064;5.116;2022-10-18T12:41:06;5.20;;;1.00;;
69931;SDS011;57243;52.064;5.116;2022-10-18T12:43:39;5.13;;;1.10;;
69931;SDS011;57243;52.064;5.116;2022-10-18T12:46:05;3.77;;;1.10;;
69931;SDS011;57243;52.064;5.116;2022-10-18T12:48:39;4.15;;;1.13;;
69931;SDS011;57243;52.064;5.116;2022-10-18T12:51:14;4.70;;;1.15;;
69931;SDS011;57243;52.064;5.116;2022-10-18T12:53:45;6.55;;;1.25;;
69931;SDS011;57243;52.064;5.116;2022-10-18T12:56:37;5.75;;;1.13;;
69931;SDS011;57243;52.064;5.116;2022-10-18T13:02:07;2.95;;;1.20;;
69931;SDS011;57243;52.064;5.116;2022-10-18T13:07:38;5.75;;;1.38;;
69931;SDS011;57243;52.064;5.116;2022-10-18T13:15:40;5.10;;;1.40;;
69931;SDS011;57243;52.064;5.116;2022-10-18T13:18:18;2.55;;;1.00;;
69931;SDS011;57243;52.064;5.116;2022-10-18T13:34:53;3.22;;;0.88;;
69931;SDS011;57243;52.064;5.116;2022-10-18T13:37:19;3.15;;;1.13;;
69931;SDS011;57243;52.064;5.116;2022-10-18T13:40:12;1.58;;;0.73;;
69931;SDS011;57243;52.064;5.116;2022-10-18T13:42:53;2.57;;;1.00;;
69931;SDS011;57243;52.064;5.116;2022-10-18T13:51:24;2.38;;;0.80;;
69931;SDS011;57243;52.064;5.116;2022-10-18T13:56:50;3.60;;;0.90;;
69931;SDS011;57243;52.064;5.116;2022-10-18T13:59:31;3.08;;;1.00;;
69931;SDS011;57243;52.064;5.116;2022-10-18T14:07:43;2.03;;;0.70;;
69931;SDS011;57243;52.064;5.116;2022-10-18T14:10:16;4.32;;;1.00;;
69931;SDS011;57243;52.064;5.116;2022-10-18T14:12:51;4.18;;;1.00;;
69931;SDS011;57243;52.064;5.116;2022-10-18T14:15:24;2.97;;;0.80;;
69931;SDS011;57243;52.064;5.116;2022-10-18T14:17:57;2.45;;;0.77;;
69931;SDS011;57243;52.064;5.116;2022-10-18T14:25:55;3.10;;;0.82;;
69931;SDS011;57243;52.064;5.116;2022-10-18T14:28:31;4.20;;;0.83;;
69931;SDS011;57243;52.064;5.116;2022-10-18T14:30:57;1.98;;;0.95;;
69931;SDS011;57243;52.064;5.116;2022-10-18T14:33:31;3.40;;;1.30;;
69931;SDS011;57243;52.064;5.116;2022-10-18T14:38:34;2.22;;;0.70;;
69931;SDS011;57243;52.064;5.116;2022-10-18T14:41:22;3.10;;;0.90;;
69931;SDS011;57243;52.064;5.116;2022-10-18T14:43:48;4.05;;;0.85;;
69931;SDS011;57243;52.064;5.116;2022-10-18T14:46:19;2.20;;;0.80;;
69931;SDS011;57243;52.064;5.116;2022-10-18T14:48:55;3.43;;;0.80;;
69931;SDS011;57243;52.064;5.116;2022-10-18T14:51:25;3.13;;;0.90;;
69931;SDS011;57243;52.064;5.116;2022-10-18T14:53:53;2.25;;;0.88;;
69931;SDS011;57243;52.064;5.116;2022-10-18T14:56:28;2.63;;;0.90;;
69931;SDS011;57243;52.064;5.116;2022-10-18T14:58:57;2.50;;;0.70;;
69931;SDS011;57243;52.064;5.116;2022-10-18T15:01:30;1.73;;;0.73;;
69931;SDS011;57243;52.064;5.116;2022-10-18T15:04:00;2.25;;;0.77;;
69931;SDS011;57243;52.064;5.116;2022-10-18T15:06:31;3.53;;;1.20;;
69931;SDS011;57243;52.064;5.116;2022-10-18T15:08:57;2.22;;;0.80;;
69931;SDS011;57243;52.064;5.116;2022-10-18T15:11:28;2.42;;;0.85;;
69931;SDS011;57243;52.064;5.116;2022-10-18T15:14:02;1.33;;;0.70;;
69931;SDS011;57243;52.064;5.116;2022-10-18T15:16:32;3.42;;;0.80;;
69931;SDS011;57243;52.064;5.116;2022-10-18T15:19:01;2.65;;;0.88;;
69931;SDS011;57243;52.064;5.116;2022-10-18T15:21:29;0.73;;;0.50;;
69931;SDS011;57243;52.064;5.116;2022-10-18T15:24:17;3.28;;;0.80;;
69931;SDS011;57243;52.064;5.116;2022-10-18T15:26:45;3.40;;;0.80;;
69931;SDS011;57243;52.064;5.116;2022-10-18T15:29:16;2.63;;;0.80;;
69931;SDS011;57243;52.064;5.116;2022-10-18T15:31:48;1.85;;;0.85;;
69931;SDS011;57243;52.064;5.116;2022-10-18T15:34:18;3.75;;;0.80;;
69931;SDS011;57243;52.064;5.116;2022-10-18T15:36:47;3.55;;;0.88;;
69931;SDS011;57243;52.064;5.116;2022-10-18T15:39:16;4.17;;;1.00;;
69931;SDS011;57243;52.064;5.116;2022-10-18T15:41:51;4.18;;;0.90;;
69931;SDS011;57243;52.064;5.116;2022-10-18T15:44:22;4.40;;;1.48;;
69931;SDS011;57243;52.064;5.116;2022-10-18T15:47:07;2.75;;;0.90;;
69931;SDS011;57243;52.064;5.116;2022-10-18T15:49:49;2.78;;;1.00;;
69931;SDS011;57243;52.064;5.116;2022-10-18T15:54:58;3.05;;;0.95;;
69931;SDS011;57243;52.064;5.116;2022-10-18T15:57:25;2.20;;;0.95;;
69931;SDS011;57243;52.064;5.116;2022-10-18T15:59:57;2.90;;;0.70;;
69931;SDS011;57243;52.064;5.116;2022-10-18T16:02:28;7.93;;;0.80;;
69931;SDS011;57243;52.064;5.116;2022-10-18T16:04:54;2.77;;;0.90;;
69931;SDS011;57243;52.064;5.116;2022-10-18T16:07:19;2.25;;;0.90;;
69931;SDS011;57243;52.064;5.116;2022-10-18T16:09:45;3.93;;;1.00;;
69931;SDS011;57243;52.064;5.116;2022-10-18T16:12:11;3.42;;;1.05;;
69931;SDS011;57243;52.064;5.116;2022-10-18T16:14:36;2.93;;;1.00;;
69931;SDS011;57243;52.064;5.116;2022-10-18T16:17:03;2.77;;;0.90;;
69931;SDS011;57243;52.064;5.116;2022-10-18T16:19:30;2.70;;;0.90;;
69931;SDS011;57243;52.064;5.116;2022-10-18T16:21:57;3.40;;;1.00;;
69931;SDS011;57243;52.064;5.116;2022-10-18T16:24:23;3.92;;;1.17;;
69931;SDS011;57243;52.064;5.116;2022-10-18T16:26:49;3.37;;;0.87;;
69931;SDS011;57243;52.064;5.116;2022-10-18T16:29:16;3.65;;;1.02;;
69931;SDS011;57243;52.064;5.116;2022-10-18T16:31:46;2.25;;;0.90;;
69931;SDS011;57243;52.064;5.116;2022-10-18T16:34:12;6.97;;;1.00;;
69931;SDS011;57243;52.064;5.116;2022-10-18T16:36:39;2.90;;;1.00;;
69931;SDS011;57243;52.064;5.116;2022-10-18T16:39:06;5.53;;;0.93;;
69931;SDS011;57243;52.064;5.116;2022-10-18T16:41:38;3.92;;;1.02;;
69931;SDS011;57243;52.064;5.116;2022-10-18T16:44:04;5.03;;;1.73;;
69931;SDS011;57243;52.064;5.116;2022-10-18T16:46:30;4.20;;;1.08;;
69931;SDS011;57243;52.064;5.116;2022-10-18T16:48:57;4.47;;;1.20;;
69931;SDS011;57243;52.064;5.116;2022-10-18T16:51:24;6.75;;;1.25;;
69931;SDS011;57243;52.064;5.116;2022-10-18T16:53:50;4.93;;;1.35;;
69931;SDS011;57243;52.064;5.116;2022-10-18T16:56:18;8.40;;;1.17;;
69931;SDS011;57243;52.064;5.116;2022-10-18T16:58:46;6.90;;;1.30;;
69931;SDS011;57243;52.064;5.116;2022-10-18T17:01:13;7.67;;;1.80;;
69931;SDS011;57243;52.064;5.116;2022-10-18T17:03:41;6.88;;;1.00;;
69931;SDS011;57243;52.064;5.116;2022-10-18T17:06:14;5.78;;;1.30;;
69931;SDS011;57243;52.064;5.116;2022-10-18T17:08:41;3.97;;;1.02;;
69931;SDS011;57243;52.064;5.116;2022-10-18T17:11:08;5.87;;;1.20;;
69931;SDS011;57243;52.064;5.116;2022-10-18T17:13:34;6.57;;;1.45;;
69931;SDS011;57243;52.064;5.116;2022-10-18T17:16:00;7.90;;;1.30;;
69931;SDS011;57243;52.064;5.116;2022-10-18T17:18:27;8.40;;;1.25;;
69931;SDS011;57243;52.064;5.116;2022-10-18T17:20:54;3.47;;;1.27;;
69931;SDS011;57243;52.064;5.116;2022-10-18T17:23:21;4.90;;;1.73;;
69931;SDS011;57243;52.064;5.116;2022-10-18T17:25:46;8.80;;;1.43;;
69931;SDS011;57243;52.064;5.116;2022-10-18T17:28:13;6.60;;;1.17;;